sensor_id;sensor_type;location;lat;lon;timestamp;temperature;humidity
52267;DHT22;38223;50.940;4.034;2022-11-03T00:00:01;13.50;99.90
52267;DHT22;38223;50.940;4.034;2022-11-03T00:02:30;13.50;99.90
52267;DHT22;38223;50.940;4.034;2022-11-03T00:05:06;13.50;99.90
52267;DHT22;38223;50.940;4.034;2022-11-03T00:07:53;13.50;99.90
52267;DHT22;38223;50.940;4.034;2022-11-03T00:10:24;13.50;99.90
52267;DHT22;38223;50.940;4.034;2022-11-03T00:12:56;13.40;99.90
52267;DHT22;38223;50.940;4.034;2022-11-03T00:15:25;13.50;99.90
52267;DHT22;38223;50.940;4.034;2022-11-03T00:17:56;13.60;99.90
52267;DHT22;38223;50.940;4.034;2022-11-03T00:20:30;13.60;99.90
52267;DHT22;38223;50.940;4.034;2022-11-03T00:23:01;13.60;99.90
52267;DHT22;38223;50.940;4.034;2022-11-03T00:25:34;13.60;99.90
52267;DHT22;38223;50.940;4.034;2022-11-03T00:28:07;13.60;99.90
52267;DHT22;38223;50.940;4.034;2022-11-03T00:30:39;13.60;99.90
52267;DHT22;38223;50.940;4.034;2022-11-03T00:33:15;13.70;99.90
52267;DHT22;38223;50.940;4.034;2022-11-03T00:35:48;13.80;99.90
52267;DHT22;38223;50.940;4.034;2022-11-03T00:38:24;13.80;99.90
52267;DHT22;38223;50.940;4.034;2022-11-03T00:41:00;13.80;99.90
52267;DHT22;38223;50.940;4.034;2022-11-03T00:43:31;13.80;99.90
52267;DHT22;38223;50.940;4.034;2022-11-03T00:46:04;13.80;99.90
52267;DHT22;38223;50.940;4.034;2022-11-03T00:48:40;13.80;99.90
52267;DHT22;38223;50.940;4.034;2022-11-03T00:51:20;13.70;99.90
52267;DHT22;38223;50.940;4.034;2022-11-03T00:53:57;13.70;99.90
52267;DHT22;38223;50.940;4.034;2022-11-03T00:56:32;13.70;99.90
52267;DHT22;38223;50.940;4.034;2022-11-03T00:59:06;13.60;99.90
52267;DHT22;38223;50.940;4.034;2022-11-03T01:01:41;13.60;99.90
52267;DHT22;38223;50.940;4.034;2022-11-03T01:04:17;13.60;99.90
52267;DHT22;38223;50.940;4.034;2022-11-03T01:07:05;13.60;99.90
52267;DHT22;38223;50.940;4.034;2022-11-03T01:09:42;13.60;99.90
52267;DHT22;38223;50.940;4.034;2022-11-03T01:12:14;13.60;99.90
52267;DHT22;38223;50.940;4.034;2022-11-03T01:14:51;13.60;99.90
52267;DHT22;38223;50.940;4.034;2022-11-03T01:17:25;13.70;99.90
52267;DHT22;38223;50.940;4.034;2022-11-03T01:19:59;13.80;99.90
52267;DHT22;38223;50.940;4.034;2022-11-03T01:22:34;13.80;99.90
52267;DHT22;38223;50.940;4.034;2022-11-03T01:25:03;13.90;99.90
52267;DHT22;38223;50.940;4.034;2022-11-03T01:27:37;13.90;99.90
52267;DHT22;38223;50.940;4.034;2022-11-03T01:30:09;13.90;99.90
52267;DHT22;38223;50.940;4.034;2022-11-03T01:32:42;14.00;99.90
52267;DHT22;38223;50.940;4.034;2022-11-03T01:35:14;13.90;99.90
52267;DHT22;38223;50.940;4.034;2022-11-03T01:37:46;14.00;99.90
52267;DHT22;38223;50.940;4.034;2022-11-03T01:40:21;13.90;99.90
52267;DHT22;38223;50.940;4.034;2022-11-03T01:42:54;13.90;99.90
52267;DHT22;38223;50.940;4.034;2022-11-03T01:45:30;14.00;99.90
52267;DHT22;38223;50.940;4.034;2022-11-03T01:47:58;14.00;99.90
52267;DHT22;38223;50.940;4.034;2022-11-03T01:50:35;14.10;99.90
52267;DHT22;38223;50.940;4.034;2022-11-03T01:53:06;14.00;99.90
52267;DHT22;38223;50.940;4.034;2022-11-03T01:55:38;13.90;99.90
52267;DHT22;38223;50.940;4.034;2022-11-03T01:58:20;14.00;99.90
52267;DHT22;38223;50.940;4.034;2022-11-03T02:00:51;14.00;99.90
52267;DHT22;38223;50.940;4.034;2022-11-03T02:03:27;14.00;99.90
52267;DHT22;38223;50.940;4.034;2022-11-03T02:05:59;14.00;99.90
52267;DHT22;38223;50.940;4.034;2022-11-03T02:08:47;14.00;99.90
52267;DHT22;38223;50.940;4.034;2022-11-03T02:11:19;14.10;99.90
52267;DHT22;38223;50.940;4.034;2022-11-03T02:14:09;14.20;99.90
52267;DHT22;38223;50.940;4.034;2022-11-03T02:16:39;14.10;99.90
52267;DHT22;38223;50.940;4.034;2022-11-03T02:19:18;14.00;99.90
52267;DHT22;38223;50.940;4.034;2022-11-03T02:21:57;14.00;99.90
52267;DHT22;38223;50.940;4.034;2022-11-03T02:24:37;14.00;99.90
52267;DHT22;38223;50.940;4.034;2022-11-03T02:27:08;13.90;99.90
52267;DHT22;38223;50.940;4.034;2022-11-03T02:29:41;13.90;99.90
52267;DHT22;38223;50.940;4.034;2022-11-03T02:32:19;13.90;99.90
52267;DHT22;38223;50.940;4.034;2022-11-03T02:35:12;13.80;99.90
52267;DHT22;38223;50.940;4.034;2022-11-03T02:37:45;13.80;99.90
52267;DHT22;38223;50.940;4.034;2022-11-03T02:40:28;13.70;99.90
52267;DHT22;38223;50.940;4.034;2022-11-03T02:43:00;13.70;99.90
52267;DHT22;38223;50.940;4.034;2022-11-03T02:45:34;13.70;99.90
52267;DHT22;38223;50.940;4.034;2022-11-03T02:48:07;13.90;99.90
52267;DHT22;38223;50.940;4.034;2022-11-03T02:50:40;13.90;99.90
52267;DHT22;38223;50.940;4.034;2022-11-03T02:53:17;14.00;99.90
52267;DHT22;38223;50.940;4.034;2022-11-03T02:55:54;13.90;99.90
52267;DHT22;38223;50.940;4.034;2022-11-03T02:58:48;13.80;99.90
52267;DHT22;38223;50.940;4.034;2022-11-03T03:01:36;13.70;99.90
52267;DHT22;38223;50.940;4.034;2022-11-03T03:04:09;13.80;99.90
52267;DHT22;38223;50.940;4.034;2022-11-03T03:06:50;13.80;99.90
52267;DHT22;38223;50.940;4.034;2022-11-03T03:09:24;13.70;99.90
52267;DHT22;38223;50.940;4.034;2022-11-03T03:11:54;13.70;99.90
52267;DHT22;38223;50.940;4.034;2022-11-03T03:14:34;13.70;99.90
52267;DHT22;38223;50.940;4.034;2022-11-03T03:17:30;13.70;99.90
52267;DHT22;38223;50.940;4.034;2022-11-03T03:23:04;13.60;99.90
52267;DHT22;38223;50.940;4.034;2022-11-03T03:25:44;13.60;99.90
52267;DHT22;38223;50.940;4.034;2022-11-03T03:28:17;13.60;99.90
52267;DHT22;38223;50.940;4.034;2022-11-03T03:30:47;13.60;99.90
52267;DHT22;38223;50.940;4.034;2022-11-03T03:33:20;13.60;99.90
52267;DHT22;38223;50.940;4.034;2022-11-03T03:35:58;13.60;99.90
52267;DHT22;38223;50.940;4.034;2022-11-03T03:38:32;13.70;99.90
52267;DHT22;38223;50.940;4.034;2022-11-03T03:41:05;13.70;99.90
52267;DHT22;38223;50.940;4.034;2022-11-03T03:43:36;13.70;99.90
52267;DHT22;38223;50.940;4.034;2022-11-03T03:46:10;13.70;99.90
52267;DHT22;38223;50.940;4.034;2022-11-03T03:48:40;13.70;99.90
52267;DHT22;38223;50.940;4.034;2022-11-03T03:51:14;13.70;99.90
52267;DHT22;38223;50.940;4.034;2022-11-03T03:53:50;13.60;99.90
52267;DHT22;38223;50.940;4.034;2022-11-03T03:56:28;13.70;99.90
52267;DHT22;38223;50.940;4.034;2022-11-03T03:58:59;13.70;99.90
52267;DHT22;38223;50.940;4.034;2022-11-03T04:01:30;13.80;99.90
52267;DHT22;38223;50.940;4.034;2022-11-03T04:04:06;13.70;99.90
52267;DHT22;38223;50.940;4.034;2022-11-03T04:06:36;13.70;99.90
52267;DHT22;38223;50.940;4.034;2022-11-03T04:09:13;13.70;99.90
52267;DHT22;38223;50.940;4.034;2022-11-03T04:11:43;13.70;99.90
52267;DHT22;38223;50.940;4.034;2022-11-03T04:14:33;13.70;99.90
52267;DHT22;38223;50.940;4.034;2022-11-03T04:17:24;13.70;99.90
52267;DHT22;38223;50.940;4.034;2022-11-03T04:20:13;13.70;99.90
52267;DHT22;38223;50.940;4.034;2022-11-03T04:23:02;13.60;99.90
52267;DHT22;38223;50.940;4.034;2022-11-03T04:25:33;13.70;99.90
52267;DHT22;38223;50.940;4.034;2022-11-03T04:28:13;13.70;99.90
52267;DHT22;38223;50.940;4.034;2022-11-03T04:30:49;13.60;99.90
52267;DHT22;38223;50.940;4.034;2022-11-03T04:33:21;13.60;99.90
52267;DHT22;38223;50.940;4.034;2022-11-03T04:35:56;13.70;99.90
52267;DHT22;38223;50.940;4.034;2022-11-03T04:38:30;13.70;99.90
52267;DHT22;38223;50.940;4.034;2022-11-03T04:41:11;13.80;99.90
52267;DHT22;38223;50.940;4.034;2022-11-03T04:43:38;13.80;99.90
52267;DHT22;38223;50.940;4.034;2022-11-03T04:46:16;13.70;99.90
52267;DHT22;38223;50.940;4.034;2022-11-03T04:48:48;13.70;99.90
52267;DHT22;38223;50.940;4.034;2022-11-03T04:51:22;13.80;99.90
52267;DHT22;38223;50.940;4.034;2022-11-03T04:54:01;13.80;99.90
52267;DHT22;38223;50.940;4.034;2022-11-03T04:56:30;13.80;99.90
52267;DHT22;38223;50.940;4.034;2022-11-03T04:59:04;13.80;99.90
52267;DHT22;38223;50.940;4.034;2022-11-03T05:01:39;13.80;99.90
52267;DHT22;38223;50.940;4.034;2022-11-03T05:04:16;13.80;99.90
52267;DHT22;38223;50.940;4.034;2022-11-03T05:06:54;13.80;99.90
52267;DHT22;38223;50.940;4.034;2022-11-03T05:09:27;13.80;99.90
52267;DHT22;38223;50.940;4.034;2022-11-03T05:12:03;13.80;99.90
52267;DHT22;38223;50.940;4.034;2022-11-03T05:14:35;13.80;99.90
52267;DHT22;38223;50.940;4.034;2022-11-03T05:17:19;13.80;99.90
52267;DHT22;38223;50.940;4.034;2022-11-03T05:19:46;13.80;99.90
52267;DHT22;38223;50.940;4.034;2022-11-03T05:22:21;13.90;99.90
52267;DHT22;38223;50.940;4.034;2022-11-03T05:25:02;13.80;99.90
52267;DHT22;38223;50.940;4.034;2022-11-03T05:27:34;13.80;99.90
52267;DHT22;38223;50.940;4.034;2022-11-03T05:30:11;13.80;99.90
52267;DHT22;38223;50.940;4.034;2022-11-03T05:32:42;13.80;99.90
52267;DHT22;38223;50.940;4.034;2022-11-03T05:35:18;13.80;99.90
52267;DHT22;38223;50.940;4.034;2022-11-03T05:37:51;13.80;99.90
52267;DHT22;38223;50.940;4.034;2022-11-03T05:40:26;13.80;99.90
52267;DHT22;38223;50.940;4.034;2022-11-03T05:43:00;13.80;99.90
52267;DHT22;38223;50.940;4.034;2022-11-03T05:45:38;13.80;99.90
52267;DHT22;38223;50.940;4.034;2022-11-03T05:48:33;13.80;99.90
52267;DHT22;38223;50.940;4.034;2022-11-03T05:51:13;13.80;99.90
52267;DHT22;38223;50.940;4.034;2022-11-03T05:53:43;13.90;99.90
52267;DHT22;38223;50.940;4.034;2022-11-03T05:56:18;13.90;99.90
52267;DHT22;38223;50.940;4.034;2022-11-03T05:58:52;13.90;99.90
52267;DHT22;38223;50.940;4.034;2022-11-03T06:01:33;13.90;99.90
52267;DHT22;38223;50.940;4.034;2022-11-03T06:04:17;13.90;99.90
52267;DHT22;38223;50.940;4.034;2022-11-03T06:06:41;13.90;99.90
52267;DHT22;38223;50.940;4.034;2022-11-03T06:09:18;13.90;99.90
52267;DHT22;38223;50.940;4.034;2022-11-03T06:11:50;13.90;99.90
52267;DHT22;38223;50.940;4.034;2022-11-03T06:14:24;13.90;99.90
52267;DHT22;38223;50.940;4.034;2022-11-03T06:17:24;13.90;99.90
52267;DHT22;38223;50.940;4.034;2022-11-03T06:19:57;13.90;99.90
52267;DHT22;38223;50.940;4.034;2022-11-03T06:22:37;13.90;99.90
52267;DHT22;38223;50.940;4.034;2022-11-03T06:25:31;13.90;99.90
52267;DHT22;38223;50.940;4.034;2022-11-03T06:28:02;14.00;99.90
52267;DHT22;38223;50.940;4.034;2022-11-03T06:30:38;14.00;99.90
52267;DHT22;38223;50.940;4.034;2022-11-03T06:33:23;13.90;99.90
52267;DHT22;38223;50.940;4.034;2022-11-03T06:36:07;13.90;99.90
52267;DHT22;38223;50.940;4.034;2022-11-03T06:38:32;13.80;99.90
52267;DHT22;38223;50.940;4.034;2022-11-03T06:41:12;13.80;99.90
52267;DHT22;38223;50.940;4.034;2022-11-03T06:43:41;13.80;99.90
52267;DHT22;38223;50.940;4.034;2022-11-03T06:46:26;13.80;99.90
52267;DHT22;38223;50.940;4.034;2022-11-03T06:48:57;13.80;99.90
52267;DHT22;38223;50.940;4.034;2022-11-03T06:51:33;13.80;99.90
52267;DHT22;38223;50.940;4.034;2022-11-03T06:54:07;13.90;99.90
52267;DHT22;38223;50.940;4.034;2022-11-03T06:56:39;13.90;99.90
52267;DHT22;38223;50.940;4.034;2022-11-03T06:59:13;14.00;99.90
52267;DHT22;38223;50.940;4.034;2022-11-03T07:01:47;14.10;99.90
52267;DHT22;38223;50.940;4.034;2022-11-03T07:04:22;14.10;99.90
52267;DHT22;38223;50.940;4.034;2022-11-03T07:06:57;14.00;99.90
52267;DHT22;38223;50.940;4.034;2022-11-03T07:09:28;14.00;99.90
52267;DHT22;38223;50.940;4.034;2022-11-03T07:12:05;14.00;99.90
52267;DHT22;38223;50.940;4.034;2022-11-03T07:14:36;13.90;99.90
52267;DHT22;38223;50.940;4.034;2022-11-03T07:17:15;13.90;99.90
52267;DHT22;38223;50.940;4.034;2022-11-03T07:19:48;13.90;99.90
52267;DHT22;38223;50.940;4.034;2022-11-03T07:22:26;13.90;99.90
52267;DHT22;38223;50.940;4.034;2022-11-03T07:24:59;14.00;99.90
52267;DHT22;38223;50.940;4.034;2022-11-03T07:27:30;14.10;99.90
52267;DHT22;38223;50.940;4.034;2022-11-03T07:32:52;14.10;99.90
52267;DHT22;38223;50.940;4.034;2022-11-03T07:35:34;14.00;99.90
52267;DHT22;38223;50.940;4.034;2022-11-03T07:37:56;14.00;99.90
52267;DHT22;38223;50.940;4.034;2022-11-03T07:40:35;14.10;99.90
52267;DHT22;38223;50.940;4.034;2022-11-03T07:43:15;14.10;99.90
52267;DHT22;38223;50.940;4.034;2022-11-03T07:45:54;14.20;99.90
52267;DHT22;38223;50.940;4.034;2022-11-03T07:51:21;14.30;99.90
52267;DHT22;38223;50.940;4.034;2022-11-03T07:53:54;14.30;99.90
52267;DHT22;38223;50.940;4.034;2022-11-03T07:56:31;14.30;99.90
52267;DHT22;38223;50.940;4.034;2022-11-03T07:59:25;14.30;99.90
52267;DHT22;38223;50.940;4.034;2022-11-03T08:01:54;14.20;99.90
52267;DHT22;38223;50.940;4.034;2022-11-03T08:04:34;14.20;99.90
52267;DHT22;38223;50.940;4.034;2022-11-03T08:07:08;14.10;99.90
52267;DHT22;38223;50.940;4.034;2022-11-03T08:09:38;14.10;99.90
52267;DHT22;38223;50.940;4.034;2022-11-03T08:12:17;14.10;99.90
52267;DHT22;38223;50.940;4.034;2022-11-03T08:14:47;14.10;99.90
52267;DHT22;38223;50.940;4.034;2022-11-03T08:17:17;14.00;99.90
52267;DHT22;38223;50.940;4.034;2022-11-03T08:19:49;14.00;99.90
52267;DHT22;38223;50.940;4.034;2022-11-03T08:22:18;14.00;99.90
52267;DHT22;38223;50.940;4.034;2022-11-03T08:24:50;14.10;99.90
52267;DHT22;38223;50.940;4.034;2022-11-03T08:27:22;14.10;99.90
52267;DHT22;38223;50.940;4.034;2022-11-03T08:29:53;14.10;99.90
52267;DHT22;38223;50.940;4.034;2022-11-03T08:32:25;14.10;99.90
52267;DHT22;38223;50.940;4.034;2022-11-03T08:35:01;14.10;99.90
52267;DHT22;38223;50.940;4.034;2022-11-03T08:37:30;14.20;99.90
52267;DHT22;38223;50.940;4.034;2022-11-03T08:40:01;14.20;99.90
52267;DHT22;38223;50.940;4.034;2022-11-03T08:42:29;14.10;99.90
52267;DHT22;38223;50.940;4.034;2022-11-03T08:45:02;14.20;99.90
52267;DHT22;38223;50.940;4.034;2022-11-03T08:47:35;14.10;99.90
52267;DHT22;38223;50.940;4.034;2022-11-03T08:50:07;14.10;99.90
52267;DHT22;38223;50.940;4.034;2022-11-03T08:52:36;14.10;99.90
52267;DHT22;38223;50.940;4.034;2022-11-03T08:55:07;14.10;99.90
52267;DHT22;38223;50.940;4.034;2022-11-03T08:57:43;14.10;99.90
52267;DHT22;38223;50.940;4.034;2022-11-03T09:00:13;14.20;99.90
52267;DHT22;38223;50.940;4.034;2022-11-03T09:02:48;14.20;99.90
52267;DHT22;38223;50.940;4.034;2022-11-03T09:05:18;14.20;99.90
52267;DHT22;38223;50.940;4.034;2022-11-03T09:07:52;14.30;99.90
52267;DHT22;38223;50.940;4.034;2022-11-03T09:10:24;14.40;99.90
52267;DHT22;38223;50.940;4.034;2022-11-03T09:13:00;14.40;99.90
52267;DHT22;38223;50.940;4.034;2022-11-03T09:15:29;14.30;99.90
52267;DHT22;38223;50.940;4.034;2022-11-03T09:18:05;14.30;99.90
52267;DHT22;38223;50.940;4.034;2022-11-03T09:20:34;14.30;99.90
52267;DHT22;38223;50.940;4.034;2022-11-03T09:23:05;14.20;99.90
52267;DHT22;38223;50.940;4.034;2022-11-03T09:25:37;14.30;99.90
52267;DHT22;38223;50.940;4.034;2022-11-03T09:28:12;14.40;99.90
52267;DHT22;38223;50.940;4.034;2022-11-03T09:30:41;14.40;99.90
52267;DHT22;38223;50.940;4.034;2022-11-03T09:33:17;14.50;99.90
52267;DHT22;38223;50.940;4.034;2022-11-03T09:35:51;14.50;99.90
52267;DHT22;38223;50.940;4.034;2022-11-03T09:38:19;14.60;99.90
52267;DHT22;38223;50.940;4.034;2022-11-03T09:40:53;14.60;99.90
52267;DHT22;38223;50.940;4.034;2022-11-03T09:43:25;14.60;99.90
52267;DHT22;38223;50.940;4.034;2022-11-03T09:45:58;14.70;99.90
52267;DHT22;38223;50.940;4.034;2022-11-03T09:48:26;14.70;99.90
52267;DHT22;38223;50.940;4.034;2022-11-03T09:51:00;14.70;99.90
52267;DHT22;38223;50.940;4.034;2022-11-03T09:53:34;14.70;99.90
52267;DHT22;38223;50.940;4.034;2022-11-03T09:56:08;14.70;99.90
52267;DHT22;38223;50.940;4.034;2022-11-03T09:58:41;14.70;99.90
52267;DHT22;38223;50.940;4.034;2022-11-03T10:01:15;14.80;99.90
52267;DHT22;38223;50.940;4.034;2022-11-03T10:03:45;14.90;99.90
52267;DHT22;38223;50.940;4.034;2022-11-03T10:06:18;15.00;99.90
52267;DHT22;38223;50.940;4.034;2022-11-03T10:08:52;15.10;99.90
52267;DHT22;38223;50.940;4.034;2022-11-03T10:11:25;15.20;99.90
52267;DHT22;38223;50.940;4.034;2022-11-03T10:13:57;15.30;99.90
52267;DHT22;38223;50.940;4.034;2022-11-03T10:16:29;15.40;99.90
52267;DHT22;38223;50.940;4.034;2022-11-03T10:19:04;15.40;99.90
52267;DHT22;38223;50.940;4.034;2022-11-03T10:21:35;15.40;99.90
52267;DHT22;38223;50.940;4.034;2022-11-03T10:24:13;15.50;99.90
52267;DHT22;38223;50.940;4.034;2022-11-03T10:26:48;15.50;99.90
52267;DHT22;38223;50.940;4.034;2022-11-03T10:29:24;15.60;99.90
52267;DHT22;38223;50.940;4.034;2022-11-03T10:32:00;15.50;99.90
52267;DHT22;38223;50.940;4.034;2022-11-03T10:34:37;15.50;99.90
52267;DHT22;38223;50.940;4.034;2022-11-03T10:37:18;15.40;99.90
52267;DHT22;38223;50.940;4.034;2022-11-03T10:39:52;15.40;99.90
52267;DHT22;38223;50.940;4.034;2022-11-03T10:42:28;15.40;99.90
52267;DHT22;38223;50.940;4.034;2022-11-03T10:45:17;15.40;99.90
52267;DHT22;38223;50.940;4.034;2022-11-03T10:48:04;15.50;99.90
52267;DHT22;38223;50.940;4.034;2022-11-03T10:50:32;15.50;99.90
52267;DHT22;38223;50.940;4.034;2022-11-03T10:53:03;15.40;99.90
52267;DHT22;38223;50.940;4.034;2022-11-03T10:55:36;15.50;99.90
52267;DHT22;38223;50.940;4.034;2022-11-03T10:58:08;15.50;99.90
52267;DHT22;38223;50.940;4.034;2022-11-03T11:00:43;15.50;99.90
52267;DHT22;38223;50.940;4.034;2022-11-03T11:03:13;15.60;99.90
52267;DHT22;38223;50.940;4.034;2022-11-03T11:05:47;15.70;99.90
52267;DHT22;38223;50.940;4.034;2022-11-03T11:08:21;15.70;99.90
52267;DHT22;38223;50.940;4.034;2022-11-03T11:10:57;15.80;99.90
52267;DHT22;38223;50.940;4.034;2022-11-03T11:13:27;15.90;99.90
52267;DHT22;38223;50.940;4.034;2022-11-03T11:16:01;15.80;99.90
52267;DHT22;38223;50.940;4.034;2022-11-03T11:23:50;15.80;99.90
52267;DHT22;38223;50.940;4.034;2022-11-03T11:26:30;15.90;99.90
52267;DHT22;38223;50.940;4.034;2022-11-03T11:31:45;15.90;99.90
52267;DHT22;38223;50.940;4.034;2022-11-03T11:42:23;16.00;99.90
52267;DHT22;38223;50.940;4.034;2022-11-03T11:44:55;16.00;99.90
52267;DHT22;38223;50.940;4.034;2022-11-03T11:47:44;16.20;99.90
52267;DHT22;38223;50.940;4.034;2022-11-03T11:53:17;16.30;99.90
52267;DHT22;38223;50.940;4.034;2022-11-03T11:55:52;16.30;99.90
52267;DHT22;38223;50.940;4.034;2022-11-03T11:58:28;16.30;99.90
52267;DHT22;38223;50.940;4.034;2022-11-03T12:01:00;16.40;99.90
52267;DHT22;38223;50.940;4.034;2022-11-03T12:03:38;16.50;99.90
52267;DHT22;38223;50.940;4.034;2022-11-03T12:06:11;16.60;99.90
52267;DHT22;38223;50.940;4.034;2022-11-03T12:08:46;16.50;99.90
52267;DHT22;38223;50.940;4.034;2022-11-03T12:11:39;16.60;99.90
52267;DHT22;38223;50.940;4.034;2022-11-03T12:13:52;16.70;99.90
52267;DHT22;38223;50.940;4.034;2022-11-03T12:16:32;16.60;99.90
52267;DHT22;38223;50.940;4.034;2022-11-03T12:22:37;16.70;99.90
52267;DHT22;38223;50.940;4.034;2022-11-03T12:24:47;16.60;99.90
52267;DHT22;38223;50.940;4.034;2022-11-03T12:30:02;16.60;99.90
52267;DHT22;38223;50.940;4.034;2022-11-03T12:32:29;16.70;99.90
52267;DHT22;38223;50.940;4.034;2022-11-03T12:35:04;16.70;99.90
52267;DHT22;38223;50.940;4.034;2022-11-03T12:37:35;16.70;99.90
52267;DHT22;38223;50.940;4.034;2022-11-03T12:40:07;16.70;99.90
52267;DHT22;38223;50.940;4.034;2022-11-03T12:42:40;16.70;99.90
52267;DHT22;38223;50.940;4.034;2022-11-03T12:45:13;16.60;99.90
52267;DHT22;38223;50.940;4.034;2022-11-03T12:47:44;16.60;99.90
52267;DHT22;38223;50.940;4.034;2022-11-03T12:50:20;16.60;99.90
52267;DHT22;38223;50.940;4.034;2022-11-03T12:52:49;16.60;99.90
52267;DHT22;38223;50.940;4.034;2022-11-03T12:55:22;16.60;99.90
52267;DHT22;38223;50.940;4.034;2022-11-03T12:57:54;16.40;99.90
52267;DHT22;38223;50.940;4.034;2022-11-03T13:00:29;16.40;99.90
52267;DHT22;38223;50.940;4.034;2022-11-03T13:03:02;16.40;99.90
52267;DHT22;38223;50.940;4.034;2022-11-03T13:05:36;16.30;99.90
52267;DHT22;38223;50.940;4.034;2022-11-03T13:08:06;16.20;99.90
52267;DHT22;38223;50.940;4.034;2022-11-03T13:10:43;16.20;99.90
52267;DHT22;38223;50.940;4.034;2022-11-03T13:13:22;16.30;99.90
52267;DHT22;38223;50.940;4.034;2022-11-03T13:15:56;16.20;99.90
52267;DHT22;38223;50.940;4.034;2022-11-03T13:18:27;16.20;99.90
52267;DHT22;38223;50.940;4.034;2022-11-03T13:20:59;16.00;99.90
52267;DHT22;38223;50.940;4.034;2022-11-03T13:23:34;16.00;99.90
52267;DHT22;38223;50.940;4.034;2022-11-03T13:26:04;15.80;99.90
52267;DHT22;38223;50.940;4.034;2022-11-03T13:28:40;15.70;99.90
52267;DHT22;38223;50.940;4.034;2022-11-03T13:31:10;15.50;99.90
52267;DHT22;38223;50.940;4.034;2022-11-03T13:33:45;15.50;99.90
52267;DHT22;38223;50.940;4.034;2022-11-03T13:36:16;15.50;99.90
52267;DHT22;38223;50.940;4.034;2022-11-03T13:38:52;15.50;99.90
52267;DHT22;38223;50.940;4.034;2022-11-03T13:41:26;15.50;99.90
52267;DHT22;38223;50.940;4.034;2022-11-03T13:44:01;15.50;99.90
52267;DHT22;38223;50.940;4.034;2022-11-03T13:46:30;15.50;99.90
52267;DHT22;38223;50.940;4.034;2022-11-03T13:49:02;15.50;99.90
52267;DHT22;38223;50.940;4.034;2022-11-03T13:51:32;15.60;99.90
52267;DHT22;38223;50.940;4.034;2022-11-03T13:54:06;15.40;99.90
52267;DHT22;38223;50.940;4.034;2022-11-03T13:56:38;15.40;99.90
52267;DHT22;38223;50.940;4.034;2022-11-03T13:59:14;15.30;99.90
52267;DHT22;38223;50.940;4.034;2022-11-03T14:01:42;15.40;99.90
52267;DHT22;38223;50.940;4.034;2022-11-03T14:04:13;15.40;99.90
52267;DHT22;38223;50.940;4.034;2022-11-03T14:06:46;15.40;99.90
52267;DHT22;38223;50.940;4.034;2022-11-03T14:09:25;15.30;99.90
52267;DHT22;38223;50.940;4.034;2022-11-03T14:11:54;15.40;99.90
52267;DHT22;38223;50.940;4.034;2022-11-03T14:14:46;15.50;99.90
52267;DHT22;38223;50.940;4.034;2022-11-03T14:17:18;15.40;99.90
52267;DHT22;38223;50.940;4.034;2022-11-03T14:19:51;15.20;99.90
52267;DHT22;38223;50.940;4.034;2022-11-03T14:22:25;15.20;99.90
52267;DHT22;38223;50.940;4.034;2022-11-03T14:24:58;15.10;99.90
52267;DHT22;38223;50.940;4.034;2022-11-03T14:27:30;15.20;99.90
52267;DHT22;38223;50.940;4.034;2022-11-03T14:30:05;15.10;99.90
52267;DHT22;38223;50.940;4.034;2022-11-03T14:32:37;15.00;99.90
52267;DHT22;38223;50.940;4.034;2022-11-03T14:35:06;15.10;99.90
52267;DHT22;38223;50.940;4.034;2022-11-03T14:37:36;15.10;99.90
52267;DHT22;38223;50.940;4.034;2022-11-03T14:40:11;15.00;99.90
52267;DHT22;38223;50.940;4.034;2022-11-03T14:42:40;15.00;99.90
52267;DHT22;38223;50.940;4.034;2022-11-03T14:45:14;15.00;99.90
52267;DHT22;38223;50.940;4.034;2022-11-03T14:47:44;14.90;99.90
52267;DHT22;38223;50.940;4.034;2022-11-03T14:50:16;14.90;99.90
52267;DHT22;38223;50.940;4.034;2022-11-03T14:52:49;14.90;99.90
52267;DHT22;38223;50.940;4.034;2022-11-03T14:55:21;14.90;99.90
52267;DHT22;38223;50.940;4.034;2022-11-03T14:57:51;14.80;99.90
52267;DHT22;38223;50.940;4.034;2022-11-03T15:00:23;14.80;99.90
52267;DHT22;38223;50.940;4.034;2022-11-03T15:02:58;14.70;99.90
52267;DHT22;38223;50.940;4.034;2022-11-03T15:05:31;14.70;99.90
52267;DHT22;38223;50.940;4.034;2022-11-03T15:08:17;14.60;99.90
52267;DHT22;38223;50.940;4.034;2022-11-03T15:10:51;14.60;99.90
52267;DHT22;38223;50.940;4.034;2022-11-03T15:13:26;14.60;99.90
52267;DHT22;38223;50.940;4.034;2022-11-03T15:16:04;14.60;99.90
52267;DHT22;38223;50.940;4.034;2022-11-03T15:18:36;14.50;99.90
52267;DHT22;38223;50.940;4.034;2022-11-03T15:21:11;14.40;99.90
52267;DHT22;38223;50.940;4.034;2022-11-03T15:23:44;14.30;99.90
52267;DHT22;38223;50.940;4.034;2022-11-03T15:26:17;14.30;99.90
52267;DHT22;38223;50.940;4.034;2022-11-03T15:28:51;14.30;99.90
52267;DHT22;38223;50.940;4.034;2022-11-03T15:31:23;14.30;99.90
52267;DHT22;38223;50.940;4.034;2022-11-03T15:34:00;14.20;99.90
52267;DHT22;38223;50.940;4.034;2022-11-03T15:36:28;14.20;99.90
52267;DHT22;38223;50.940;4.034;2022-11-03T15:39:00;14.10;99.90
52267;DHT22;38223;50.940;4.034;2022-11-03T15:41:31;14.00;99.90
52267;DHT22;38223;50.940;4.034;2022-11-03T15:44:07;13.90;99.90
52267;DHT22;38223;50.940;4.034;2022-11-03T15:46:41;13.80;99.90
52267;DHT22;38223;50.940;4.034;2022-11-03T15:49:16;13.80;99.90
52267;DHT22;38223;50.940;4.034;2022-11-03T15:51:46;13.70;99.90
52267;DHT22;38223;50.940;4.034;2022-11-03T15:54:16;13.70;99.90
52267;DHT22;38223;50.940;4.034;2022-11-03T15:56:53;13.60;99.90
52267;DHT22;38223;50.940;4.034;2022-11-03T15:59:22;13.50;99.90
52267;DHT22;38223;50.940;4.034;2022-11-03T16:01:57;13.50;99.90
52267;DHT22;38223;50.940;4.034;2022-11-03T16:04:28;13.50;99.90
52267;DHT22;38223;50.940;4.034;2022-11-03T16:09:46;13.40;99.90
52267;DHT22;38223;50.940;4.034;2022-11-03T16:12:19;13.30;99.90
52267;DHT22;38223;50.940;4.034;2022-11-03T16:14:53;13.30;99.90
52267;DHT22;38223;50.940;4.034;2022-11-03T16:17:26;13.20;99.90
52267;DHT22;38223;50.940;4.034;2022-11-03T16:19:55;13.20;99.90
52267;DHT22;38223;50.940;4.034;2022-11-03T16:22:30;13.10;99.90
52267;DHT22;38223;50.940;4.034;2022-11-03T16:25:00;13.00;99.90
52267;DHT22;38223;50.940;4.034;2022-11-03T16:27:32;13.00;99.90
52267;DHT22;38223;50.940;4.034;2022-11-03T16:30:03;13.00;99.90
52267;DHT22;38223;50.940;4.034;2022-11-03T16:32:34;13.10;99.90
52267;DHT22;38223;50.940;4.034;2022-11-03T16:35:07;13.20;99.90
52267;DHT22;38223;50.940;4.034;2022-11-03T16:37:37;13.20;99.90
52267;DHT22;38223;50.940;4.034;2022-11-03T16:40:09;13.20;99.90
52267;DHT22;38223;50.940;4.034;2022-11-03T16:42:41;13.10;99.90
52267;DHT22;38223;50.940;4.034;2022-11-03T16:45:21;13.10;99.90
52267;DHT22;38223;50.940;4.034;2022-11-03T16:47:53;13.10;99.90
52267;DHT22;38223;50.940;4.034;2022-11-03T16:50:23;13.20;99.90